createdAt,value
2022-09-11T00:01:48.225Z,12.50
2022-09-11T00:04:18.980Z,12.50
2022-09-11T00:06:48.084Z,12.80
2022-09-11T00:09:16.981Z,13.57
2022-09-11T00:11:46.114Z,13.33
2022-09-11T00:14:15.277Z,13.27
2022-09-11T00:16:46.082Z,13.83
2022-09-11T00:19:15.736Z,12.47
2022-09-11T00:21:45.997Z,12.20
2022-09-11T00:24:15.184Z,12.57
2022-09-11T00:26:43.444Z,12.37
2022-09-11T00:29:12.083Z,12.47
2022-09-11T00:31:41.795Z,13.40
2022-09-11T00:34:13.165Z,13.13
2022-09-11T00:36:43.998Z,12.93
2022-09-11T00:39:15.205Z,12.43
2022-09-11T00:41:47.000Z,13.13
2022-09-11T00:44:53.125Z,12.10
2022-09-11T00:47:24.353Z,11.83
2022-09-11T00:49:57.154Z,12.57
2022-09-11T00:52:31.781Z,12.07
2022-09-11T00:55:07.005Z,12.00
2022-09-11T00:57:41.097Z,12.30
2022-09-11T01:00:12.901Z,12.17
2022-09-11T01:02:47.745Z,13.17
2022-09-11T01:05:17.924Z,13.53
2022-09-11T01:07:49.092Z,13.57
2022-09-11T01:10:20.109Z,13.60
2022-09-11T01:12:56.399Z,12.57
2022-09-11T01:15:30.142Z,12.73
2022-09-11T01:18:06.167Z,12.37
2022-09-11T01:20:51.747Z,13.57
2022-09-11T01:23:40.214Z,12.57
2022-09-11T01:26:32.570Z,13.27
2022-09-11T01:29:07.323Z,13.87
2022-09-11T01:31:43.374Z,13.07
2022-09-11T01:34:21.191Z,14.63
2022-09-11T01:36:55.151Z,12.83
2022-09-11T01:39:32.268Z,12.93
2022-09-11T01:42:04.749Z,12.60
2022-09-11T01:44:41.115Z,13.27
2022-09-11T01:47:14.020Z,12.83
2022-09-11T01:49:47.929Z,13.30
2022-09-11T01:52:20.630Z,13.63
2022-09-11T01:54:53.057Z,13.87
2022-09-11T01:57:28.108Z,12.93
2022-09-11T02:00:03.035Z,12.93
2022-09-11T02:02:37.152Z,12.73
2022-09-11T02:05:10.107Z,13.10
2022-09-11T02:07:45.128Z,12.40
2022-09-11T02:10:21.131Z,12.93
2022-09-11T02:12:54.118Z,12.57
2022-09-11T02:15:28.147Z,12.23
2022-09-11T02:18:03.420Z,19.60
2022-09-11T02:20:36.244Z,12.13
2022-09-11T02:23:07.117Z,12.00
2022-09-11T02:25:39.977Z,12.37
2022-09-11T02:28:09.158Z,11.60
2022-09-11T02:30:39.647Z,11.83
2022-09-11T02:33:28.128Z,12.00
2022-09-11T02:36:04.258Z,12.30
2022-09-11T02:38:47.247Z,11.47
2022-09-11T02:41:24.170Z,11.40
2022-09-11T02:44:04.153Z,10.73
2022-09-11T02:46:56.964Z,10.90
2022-09-11T02:49:39.147Z,10.17
2022-09-11T02:52:16.482Z,10.33
2022-09-11T02:54:54.277Z,11.03
2022-09-11T02:57:32.138Z,10.30
2022-09-11T03:00:06.446Z,10.30
2022-09-11T03:02:40.517Z,10.23
2022-09-11T03:05:10.051Z,8.87
2022-09-11T03:07:42.854Z,8.63
2022-09-11T03:10:13.086Z,9.80
2022-09-11T03:12:45.170Z,8.73
2022-09-11T03:15:14.063Z,9.40
2022-09-11T03:17:46.106Z,8.80
2022-09-11T03:20:15.995Z,8.50
2022-09-11T03:22:50.319Z,8.83
2022-09-11T03:25:18.395Z,8.43
2022-09-11T03:27:49.192Z,8.77
2022-09-11T03:30:17.951Z,8.50
2022-09-11T03:32:52.241Z,8.17
2022-09-11T03:35:20.933Z,8.97
2022-09-11T03:37:50.468Z,8.43
2022-09-11T03:40:20.285Z,8.93
2022-09-11T03:42:54.221Z,8.13
2022-09-11T03:45:22.337Z,8.67
2022-09-11T03:47:53.771Z,8.47
2022-09-11T03:50:22.296Z,8.27
2022-09-11T03:52:55.763Z,8.03
2022-09-11T03:55:24.458Z,8.27
2022-09-11T03:57:53.155Z,8.47
2022-09-11T04:00:22.233Z,8.13
2022-09-11T04:02:51.083Z,8.43
2022-09-11T04:05:39.907Z,9.03
2022-09-11T04:08:08.208Z,8.40
2022-09-11T04:10:36.723Z,8.57
2022-09-11T04:13:05.745Z,9.20
2022-09-11T04:15:38.349Z,8.40
2022-09-11T04:18:08.342Z,9.13
2022-09-11T04:21:04.870Z,9.00
2022-09-11T04:23:34.125Z,9.20
2022-09-11T04:26:14.360Z,8.97
2022-09-11T04:28:42.451Z,9.13
2022-09-11T04:31:38.447Z,8.00
2022-09-11T04:34:31.632Z,8.50
2022-09-11T04:37:03.310Z,8.33
2022-09-11T04:39:34.187Z,8.27
2022-09-11T04:42:04.424Z,8.60
2022-09-11T04:44:33.362Z,8.77
2022-09-11T04:47:02.242Z,9.10
2022-09-11T04:49:30.269Z,9.57
2022-09-11T04:52:02.829Z,9.07
2022-09-11T04:54:33.928Z,8.10
2022-09-11T04:57:03.841Z,8.70
2022-09-11T04:59:32.749Z,8.30
2022-09-11T05:02:07.263Z,8.33
2022-09-11T05:04:43.210Z,8.13
2022-09-11T05:07:15.386Z,8.33
2022-09-11T05:09:50.700Z,7.20
2022-09-11T05:12:23.222Z,7.60
2022-09-11T05:14:52.264Z,6.93
2022-09-11T05:17:22.275Z,7.37
2022-09-11T05:19:51.204Z,8.40
2022-09-11T05:22:24.114Z,7.50
2022-09-11T05:24:58.562Z,7.47
2022-09-11T05:27:27.941Z,7.60
2022-09-11T05:29:56.965Z,7.33
2022-09-11T05:32:25.251Z,8.30
2022-09-11T05:34:53.259Z,7.57
2022-09-11T05:37:23.785Z,7.17
2022-09-11T05:39:52.008Z,7.57
2022-09-11T05:42:23.238Z,7.77
2022-09-11T05:44:56.226Z,7.53
2022-09-11T05:47:27.150Z,6.80
2022-09-11T05:49:57.459Z,6.07
2022-09-11T05:52:28.586Z,6.70
2022-09-11T05:54:58.242Z,6.60
2022-09-11T05:57:35.404Z,6.67
2022-09-11T06:00:04.324Z,6.80
2022-09-11T06:02:39.047Z,7.00
2022-09-11T06:05:10.908Z,6.60
2022-09-11T06:07:40.310Z,7.70
2022-09-11T06:10:10.930Z,7.47
2022-09-11T06:12:41.268Z,7.50
2022-09-11T06:15:24.840Z,6.50
2022-09-11T06:17:59.589Z,7.33
2022-09-11T06:20:29.172Z,6.93
2022-09-11T06:22:58.244Z,7.10
2022-09-11T06:25:29.614Z,6.90
2022-09-11T06:28:00.248Z,7.43
2022-09-11T06:30:28.931Z,7.30
2022-09-11T06:33:04.296Z,8.13
2022-09-11T06:35:33.186Z,8.23
2022-09-11T06:38:02.838Z,8.03
2022-09-11T06:40:32.239Z,7.83
2022-09-11T06:43:05.928Z,7.87
2022-09-11T06:45:34.521Z,8.13
2022-09-11T06:48:03.755Z,8.83
2022-09-11T06:50:40.240Z,8.50
2022-09-11T06:53:09.196Z,8.50
2022-09-11T06:55:41.298Z,8.73
2022-09-11T06:58:16.448Z,8.93
2022-09-11T07:00:45.314Z,9.10
2022-09-11T07:03:15.267Z,8.50
2022-09-11T07:05:49.480Z,8.60
2022-09-11T07:08:20.746Z,8.83
2022-09-11T07:10:58.512Z,8.43
2022-09-11T07:13:29.663Z,8.47
2022-09-11T07:16:08.124Z,8.30
2022-09-11T07:18:40.250Z,8.97
2022-09-11T07:21:17.737Z,9.13
2022-09-11T07:23:49.667Z,9.80
2022-09-11T07:26:25.653Z,8.60
2022-09-11T07:29:01.369Z,8.90
2022-09-11T07:31:33.191Z,10.20
2022-09-11T07:34:02.798Z,9.17
2022-09-11T07:39:28.280Z,9.97
2022-09-11T07:42:22.387Z,8.80
2022-09-11T07:44:51.830Z,9.53
2022-09-11T07:47:20.289Z,10.13
2022-09-11T07:49:53.436Z,9.23
2022-09-11T07:52:21.656Z,9.47
2022-09-11T07:54:56.973Z,9.20
2022-09-11T07:57:31.359Z,9.57
2022-09-11T08:00:09.412Z,9.53
2022-09-11T08:02:49.465Z,9.60
2022-09-11T08:05:27.343Z,8.50
2022-09-11T08:07:56.310Z,9.07
2022-09-11T08:10:28.951Z,9.17
2022-09-11T08:13:00.204Z,9.07
2022-09-11T08:15:35.571Z,9.50
2022-09-11T08:18:07.223Z,10.37
2022-09-11T08:21:00.073Z,10.50
2022-09-11T08:23:28.183Z,10.30
2022-09-11T08:25:57.352Z,9.97
2022-09-11T08:28:26.338Z,9.57
2022-09-11T08:30:59.977Z,9.43
2022-09-11T08:33:28.655Z,10.00
2022-09-11T08:36:06.273Z,8.60
2022-09-11T08:38:35.308Z,8.57
2022-09-11T08:41:14.545Z,8.97
2022-09-11T08:43:50.889Z,7.73
2022-09-11T08:46:24.477Z,7.80
2022-09-11T08:48:58.563Z,8.10
2022-09-11T08:51:27.053Z,8.10
2022-09-11T08:53:58.015Z,8.70
2022-09-11T08:56:30.380Z,7.20
2022-09-11T08:59:17.670Z,6.50
2022-09-11T09:01:57.337Z,6.13
2022-09-11T09:04:40.239Z,6.63
2022-09-11T09:07:22.859Z,6.73
2022-09-11T09:10:03.289Z,5.63
2022-09-11T09:12:45.451Z,6.90
2022-09-11T09:15:29.401Z,6.73
2022-09-11T09:18:04.368Z,5.73
2022-09-11T09:20:37.390Z,5.67
2022-09-11T09:23:14.011Z,5.77
2022-09-11T09:25:45.379Z,5.23
2022-09-11T09:28:21.934Z,4.80
2022-09-11T09:30:55.545Z,5.27
2022-09-11T09:33:31.241Z,5.07
2022-09-11T09:36:16.335Z,5.43
2022-09-11T09:38:46.570Z,5.33
2022-09-11T09:41:41.361Z,4.87
2022-09-11T09:44:19.752Z,5.00
2022-09-11T09:46:51.464Z,3.97
2022-09-11T09:49:30.385Z,4.57
2022-09-11T09:52:04.188Z,4.90
2022-09-11T09:54:36.504Z,4.50
2022-09-11T09:57:08.450Z,4.50
2022-09-11T09:59:45.474Z,4.60
2022-09-11T10:02:14.435Z,4.43
2022-09-11T10:04:43.744Z,4.50
2022-09-11T10:07:21.840Z,4.20
2022-09-11T10:10:03.373Z,4.43
2022-09-11T10:12:32.514Z,4.60
2022-09-11T10:15:08.412Z,4.80
2022-09-11T10:17:40.537Z,4.33
2022-09-11T10:20:26.749Z,4.93
2022-09-11T10:22:56.418Z,5.10
2022-09-11T10:25:26.726Z,5.37
2022-09-11T10:28:05.773Z,5.40
2022-09-11T10:30:37.727Z,5.27
2022-09-11T10:33:17.372Z,5.60
2022-09-11T10:35:55.281Z,5.87
2022-09-11T10:38:53.205Z,6.13
2022-09-11T10:41:25.011Z,6.23
2022-09-11T10:43:58.860Z,6.87
2022-09-11T10:46:40.347Z,6.87
2022-09-11T10:49:18.295Z,7.30
2022-09-11T10:52:02.899Z,6.23
2022-09-11T10:54:47.258Z,6.20
2022-09-11T10:57:22.387Z,6.77
2022-09-11T10:59:59.492Z,6.13
2022-09-11T11:02:31.872Z,5.97
2022-09-11T11:05:05.329Z,5.73
2022-09-11T11:08:08.410Z,6.00
2022-09-11T11:10:48.532Z,5.60
2022-09-11T11:13:38.561Z,6.50
2022-09-11T11:16:17.584Z,7.00
2022-09-11T11:19:14.328Z,7.07
2022-09-11T11:21:55.616Z,7.43
2022-09-11T11:24:43.045Z,7.80
2022-09-11T11:27:36.650Z,7.47
2022-09-11T11:30:18.318Z,7.17
2022-09-11T11:33:07.414Z,6.70
2022-09-11T11:35:44.770Z,6.47
2022-09-11T11:38:22.413Z,7.20
2022-09-11T11:40:57.497Z,7.63
2022-09-11T11:43:30.322Z,6.73
2022-09-11T11:46:05.850Z,7.67
2022-09-11T11:48:48.420Z,7.47
2022-09-11T11:51:20.345Z,6.70
2022-09-11T11:54:00.484Z,7.20
2022-09-11T11:56:36.811Z,6.43
2022-09-11T11:59:17.475Z,6.57
2022-09-11T12:01:50.337Z,6.57
2022-09-11T12:04:27.484Z,6.27
2022-09-11T12:06:56.470Z,6.20
2022-09-11T12:09:24.501Z,6.90
2022-09-11T12:11:57.632Z,5.77
2022-09-11T12:14:28.774Z,5.70
2022-09-11T12:16:58.408Z,5.67
2022-09-11T12:19:27.860Z,4.80
2022-09-11T12:22:12.071Z,5.20
2022-09-11T12:24:59.118Z,4.93
2022-09-11T12:27:53.531Z,5.20
2022-09-11T12:30:26.482Z,4.80
2022-09-11T12:32:56.495Z,5.03
2022-09-11T12:35:34.850Z,4.60
2022-09-11T12:38:13.364Z,4.97
2022-09-11T12:40:49.452Z,4.23
2022-09-11T12:43:46.535Z,5.00
2022-09-11T12:46:53.049Z,4.13
2022-09-11T12:49:27.455Z,4.53
2022-09-11T12:52:01.340Z,4.27
2022-09-11T12:54:35.369Z,4.43
2022-09-11T12:57:08.277Z,4.10
2022-09-11T12:59:43.478Z,4.10
2022-09-11T13:02:27.404Z,4.30
2022-09-11T13:04:56.455Z,4.80
2022-09-11T13:07:32.502Z,4.47
2022-09-11T13:10:08.063Z,3.87
2022-09-11T13:12:51.835Z,3.47
2022-09-11T13:15:42.842Z,3.67
2022-09-11T13:18:29.847Z,3.20
2022-09-11T13:21:03.506Z,3.37
2022-09-11T13:23:32.817Z,2.90
2022-09-11T13:26:07.935Z,2.83
2022-09-11T13:28:45.673Z,2.60
2022-09-11T13:31:21.336Z,2.37
2022-09-11T13:33:52.472Z,2.00
2022-09-11T13:36:25.003Z,2.20
2022-09-11T13:38:56.489Z,2.13
2022-09-11T13:41:30.746Z,2.03
2022-09-11T13:44:00.493Z,1.93
2022-09-11T13:46:32.605Z,1.80
2022-09-11T13:49:27.442Z,1.67
2022-09-11T13:51:56.058Z,1.80
2022-09-11T13:54:29.593Z,1.75
2022-09-11T13:57:16.517Z,1.52
2022-09-11T13:59:49.748Z,1.60
2022-09-11T14:02:41.846Z,1.75
2022-09-11T14:05:21.988Z,1.90
2022-09-11T14:08:00.752Z,1.87
2022-09-11T14:10:35.595Z,1.80
2022-09-11T14:13:14.170Z,1.90
2022-09-11T14:15:44.418Z,1.80
2022-09-11T14:18:27.127Z,1.63
2022-09-11T14:21:01.471Z,1.43
2022-09-11T14:23:32.399Z,1.88
2022-09-11T14:26:16.111Z,1.77
2022-09-11T14:29:01.338Z,1.93
2022-09-11T14:31:35.467Z,1.73
2022-09-11T14:34:17.666Z,1.60
2022-09-11T14:36:51.522Z,1.77
2022-09-11T14:39:28.492Z,1.73
2022-09-11T14:41:59.393Z,1.53
2022-09-11T14:44:28.960Z,2.10
2022-09-11T14:46:59.243Z,1.50
2022-09-11T14:49:29.601Z,1.73
2022-09-11T14:52:00.094Z,1.63
2022-09-11T14:54:31.200Z,1.50
2022-09-11T14:57:03.697Z,1.80
2022-09-11T14:59:35.462Z,1.80
2022-09-11T15:02:04.965Z,1.63
2022-09-11T15:04:35.445Z,1.40
2022-09-11T15:07:06.792Z,1.50
2022-09-11T15:09:34.927Z,1.80
2022-09-11T15:12:04.547Z,1.70
2022-09-11T15:14:55.030Z,1.43
2022-09-11T15:17:25.296Z,1.60
2022-09-11T15:19:55.428Z,1.67
2022-09-11T15:22:27.230Z,1.63
2022-09-11T15:24:56.604Z,1.60
2022-09-11T15:27:28.622Z,1.50
2022-09-11T15:29:57.433Z,1.50
2022-09-11T15:32:26.481Z,1.60
2022-09-11T15:34:56.417Z,1.50
2022-09-11T15:37:26.276Z,1.33
2022-09-11T15:39:57.151Z,1.40
2022-09-11T15:42:25.857Z,1.47
2022-09-11T15:44:54.564Z,1.77
2022-09-11T15:47:26.623Z,1.50
2022-09-11T15:49:56.006Z,1.40
2022-09-11T15:52:24.331Z,1.77
2022-09-11T15:54:52.451Z,1.60
2022-09-11T15:57:21.452Z,2.07
2022-09-11T15:59:53.467Z,2.20
2022-09-11T16:02:23.838Z,2.90
2022-09-11T16:04:53.915Z,2.70
2022-09-11T16:07:23.702Z,2.47
2022-09-11T16:09:52.686Z,2.90
2022-09-11T16:12:21.837Z,2.90
2022-09-11T16:14:50.348Z,2.93
2022-09-11T16:17:21.710Z,3.00
2022-09-11T16:19:49.723Z,3.10
2022-09-11T16:22:18.513Z,3.13
2022-09-11T16:24:49.009Z,2.90
2022-09-11T16:27:17.563Z,3.20
2022-09-11T16:32:39.222Z,3.63
2022-09-11T16:35:13.409Z,3.07
2022-09-11T16:37:42.599Z,3.37
2022-09-11T16:40:12.316Z,3.17
2022-09-11T16:42:42.224Z,3.40
2022-09-11T16:45:11.457Z,3.33
2022-09-11T16:47:39.578Z,3.50
2022-09-11T16:50:08.991Z,3.70
2022-09-11T16:52:37.366Z,3.37
2022-09-11T16:55:09.678Z,3.10
2022-09-11T16:57:40.556Z,3.77
2022-09-11T17:00:10.851Z,3.60
2022-09-11T17:02:39.619Z,3.90
2022-09-11T17:05:09.112Z,4.00
2022-09-11T17:07:38.647Z,26.10
2022-09-11T17:10:08.471Z,26.33
2022-09-11T17:12:37.561Z,4.57
2022-09-11T17:15:09.489Z,4.03
2022-09-11T17:17:38.581Z,4.33
2022-09-11T17:20:09.848Z,3.70
2022-09-11T17:22:38.601Z,4.67
2022-09-11T17:25:07.636Z,3.30
2022-09-11T17:27:37.158Z,3.50
2022-09-11T17:30:07.352Z,3.53
2022-09-11T17:32:38.024Z,3.53
2022-09-11T17:35:06.604Z,3.30
2022-09-11T17:37:35.597Z,2.90
2022-09-11T17:40:04.550Z,3.40
2022-09-11T17:42:33.922Z,3.23
2022-09-11T17:45:02.684Z,3.70
2022-09-11T17:47:33.665Z,3.33
2022-09-11T17:50:02.467Z,5.77
2022-09-11T17:52:32.065Z,5.20
2022-09-11T17:55:00.109Z,4.40
2022-09-11T17:57:28.599Z,4.20
2022-09-11T17:59:59.479Z,3.30
2022-09-11T18:02:28.807Z,3.83
2022-09-11T18:04:58.169Z,3.83
2022-09-11T18:07:30.200Z,4.03
2022-09-11T18:09:58.871Z,4.10
2022-09-11T18:12:29.562Z,3.60
2022-09-11T18:15:00.170Z,3.97
2022-09-11T18:17:28.774Z,3.90
2022-09-11T18:20:00.392Z,4.17
2022-09-11T18:22:29.850Z,3.93
2022-09-11T18:24:59.868Z,4.20
2022-09-11T18:27:33.028Z,4.80
2022-09-11T18:30:00.979Z,3.23
2022-09-11T18:32:30.663Z,3.97
2022-09-11T18:35:00.273Z,3.87
2022-09-11T18:37:28.806Z,3.83
2022-09-11T18:40:01.032Z,3.80
2022-09-11T18:42:32.792Z,3.90
2022-09-11T18:45:00.786Z,4.00
2022-09-11T18:47:30.679Z,3.77
2022-09-11T18:50:01.514Z,3.97
2022-09-11T18:52:31.363Z,3.60
2022-09-11T18:55:00.540Z,4.20
2022-09-11T18:57:28.693Z,3.73
2022-09-11T18:59:57.218Z,3.63
2022-09-11T19:02:29.230Z,4.00
2022-09-11T19:04:57.196Z,3.90
2022-09-11T19:07:28.598Z,3.50
2022-09-11T19:09:57.527Z,3.43
2022-09-11T19:12:26.152Z,3.83
2022-09-11T19:14:57.023Z,3.60
2022-09-11T19:17:25.642Z,3.53
2022-09-11T19:19:57.750Z,3.50
2022-09-11T19:22:28.110Z,3.13
2022-09-11T19:24:59.741Z,2.93
2022-09-11T19:27:31.759Z,3.90
2022-09-11T19:30:00.764Z,3.13
2022-09-11T19:32:29.679Z,3.27
2022-09-11T19:35:00.638Z,3.17
2022-09-11T19:37:32.522Z,3.10
2022-09-11T19:40:01.263Z,2.80
2022-09-11T19:42:29.814Z,3.40
2022-09-11T19:44:57.770Z,3.10
2022-09-11T19:47:29.668Z,3.50
2022-09-11T19:49:57.884Z,3.40
2022-09-11T19:52:27.774Z,3.50
2022-09-11T19:55:00.595Z,3.37
2022-09-11T19:57:30.981Z,3.10
2022-09-11T20:00:00.405Z,2.90
2022-09-11T20:02:28.585Z,2.90
2022-09-11T20:04:56.677Z,3.20
2022-09-11T20:07:24.708Z,2.77
2022-09-11T20:09:57.057Z,2.93
2022-09-11T20:12:26.821Z,3.20
2022-09-11T20:14:58.349Z,2.90
2022-09-11T20:17:32.675Z,2.80
2022-09-11T20:20:04.662Z,2.70
2022-09-11T20:22:33.300Z,3.10
2022-09-11T20:25:01.260Z,2.40
2022-09-11T20:27:34.757Z,2.60
2022-09-11T20:30:02.704Z,2.67
2022-09-11T20:32:32.119Z,2.27
2022-09-11T20:35:00.538Z,2.70
2022-09-11T20:37:29.795Z,2.60
2022-09-11T20:40:02.208Z,2.30
2022-09-11T20:42:32.721Z,2.23
2022-09-11T20:45:01.609Z,2.60
2022-09-11T20:47:29.675Z,2.50
2022-09-11T20:50:00.479Z,2.33
2022-09-11T20:52:33.244Z,2.50
2022-09-11T20:55:03.639Z,2.63
2022-09-11T20:57:33.682Z,2.60
2022-09-11T21:00:06.602Z,2.10
2022-09-11T21:02:36.379Z,2.43
2022-09-11T21:05:05.856Z,2.10
2022-09-11T21:07:34.720Z,2.83
2022-09-11T21:10:07.469Z,2.43
2022-09-11T21:12:37.656Z,2.30
2022-09-11T21:15:08.197Z,2.70
2022-09-11T21:17:36.748Z,2.30
2022-09-11T21:20:05.613Z,2.43
2022-09-11T21:22:36.820Z,2.63
2022-09-11T21:25:05.603Z,2.40
2022-09-11T21:27:33.783Z,2.27
2022-09-11T21:30:03.742Z,2.30
2022-09-11T21:32:32.286Z,2.97
2022-09-11T21:35:03.635Z,2.30
2022-09-11T21:37:33.729Z,2.60
2022-09-11T21:40:02.810Z,2.30
2022-09-11T21:42:31.827Z,2.87
2022-09-11T21:44:59.847Z,2.60
2022-09-11T21:47:32.803Z,2.50
2022-09-11T21:50:00.833Z,2.50
2022-09-11T21:52:30.705Z,2.30
2022-09-11T21:55:00.631Z,2.40
2022-09-11T21:57:29.835Z,2.67
2022-09-11T22:00:00.386Z,2.63
2022-09-11T22:02:30.698Z,2.50
2022-09-11T22:04:58.616Z,2.67
2022-09-11T22:07:27.999Z,2.73
2022-09-11T22:09:55.951Z,2.97
2022-09-11T22:12:27.875Z,2.70
2022-09-11T22:14:55.961Z,2.70
2022-09-11T22:17:24.751Z,2.70
2022-09-11T22:19:54.782Z,2.90
2022-09-11T22:22:23.949Z,2.77
2022-09-11T22:24:54.204Z,2.80
2022-09-11T22:27:22.833Z,2.67
2022-09-11T22:29:54.654Z,2.97
2022-09-11T22:32:23.777Z,2.87
2022-09-11T22:34:53.713Z,2.73
2022-09-11T22:37:23.645Z,2.37
2022-09-11T22:39:51.665Z,2.80
2022-09-11T22:42:20.792Z,2.90
2022-09-11T22:44:48.733Z,2.90
2022-09-11T22:47:17.750Z,2.60
2022-09-11T22:49:49.959Z,2.53
2022-09-11T22:52:19.293Z,3.13
2022-09-11T22:54:48.664Z,2.70
2022-09-11T22:57:17.624Z,3.00
2022-09-11T22:59:47.233Z,3.07
2022-09-11T23:02:17.984Z,2.70
2022-09-11T23:05:06.741Z,2.73
2022-09-11T23:07:35.781Z,2.70
2022-09-11T23:10:04.647Z,3.13
2022-09-11T23:12:37.341Z,2.60
2022-09-11T23:15:06.726Z,2.87
2022-09-11T23:17:35.758Z,3.30
2022-09-11T23:20:04.648Z,2.90
2022-09-11T23:22:32.724Z,3.37
2022-09-11T23:25:02.675Z,3.27
2022-09-11T23:27:32.025Z,2.97
2022-09-11T23:29:59.987Z,2.67
2022-09-11T23:32:28.807Z,3.00
2022-09-11T23:34:56.720Z,3.10
2022-09-11T23:37:25.794Z,3.00
2022-09-11T23:39:56.717Z,3.10
2022-09-11T23:42:28.803Z,3.03
2022-09-11T23:44:56.726Z,2.93
2022-09-11T23:47:25.764Z,3.20
2022-09-11T23:49:53.915Z,2.87
2022-09-11T23:52:21.934Z,2.93
2022-09-11T23:54:50.676Z,3.20
2022-09-11T23:57:22.781Z,3.10
2022-09-11T23:59:53.307Z,2.93
